Time;durP1;ratioP1;P1;durP2;ratioP2;P2;SDS_P1;SDS_P2;PMS_P1;PMS_P2;Temp;Humidity;BMP_temperature;BMP_pressure;BME280_temperature;BME280_humidity;BME280_pressure;Samples;Min_cycle;Max_cycle;Signal;HPM_P1;HPM_P2
2021/01/11 00:00:23;;;;;;;36.15;16.05;;;-3272.50;77.70;;;-6.95;79.04;96460.09;4988600;28;20069;-64
2021/01/11 00:02:52;;;;;;;35.33;16.40;;;-3272.40;77.20;;;-6.98;79.43;96467.09;4988028;28;20027;-65
2021/01/11 00:05:18;;;;;;;35.95;16.17;;;-3272.40;77.30;;;-6.98;78.95;96472.22;4988867;28;20038;-65
2021/01/11 00:07:44;;;;;;;44.03;16.65;;;-3272.40;77.10;;;-7.00;79.04;96474.84;4988455;28;20050;-64
2021/01/11 00:10:11;;;;;;;41.80;16.70;;;-3272.40;76.90;;;-7.02;79.09;96471.50;4988632;28;20529;-65
2021/01/11 00:12:38;;;;;;;32.25;16.42;;;-3272.40;77.00;;;-7.04;79.13;96468.19;4986739;28;20124;-68
2021/01/11 00:15:09;;;;;;;35.00;16.98;;;-3272.30;77.10;;;-7.04;79.34;96472.50;4988830;28;20026;-65
2021/01/11 00:17:35;;;;;;;36.50;17.35;;;-3272.30;76.90;;;-7.08;78.65;96466.69;4987755;28;20030;-65
2021/01/11 00:20:03;;;;;;;38.58;16.27;;;-3272.30;76.10;;;-7.16;78.39;96463.69;4987143;28;20037;-65
2021/01/11 00:22:29;;;;;;;33.90;16.23;;;-3272.30;76.10;;;-7.16;78.69;96469.63;4986593;28;20093;-67
2021/01/11 00:24:54;;;;;;;35.15;17.13;;;-3272.20;76.50;;;-7.16;78.85;96461.97;4987815;28;20084;-65
2021/01/11 00:27:20;;;;;;;31.95;16.35;;;-3272.20;76.50;;;-7.17;78.78;96462.03;4987909;28;20042;-66
2021/01/11 00:29:46;;;;;;;41.58;16.13;;;-3272.20;76.40;;;-7.21;78.88;96471.56;4988160;28;20089;-65
2021/01/11 00:32:12;;;;;;;32.83;15.27;;;-3272.10;77.20;;;-7.23;79.08;96462.31;4985864;28;20038;-65
2021/01/11 00:34:37;;;;;;;56.97;17.50;;;-3272.10;77.50;;;-7.24;78.95;96468.31;4986309;28;20058;-64
2021/01/11 00:37:03;;;;;;;83.22;16.88;;;-3272.10;77.50;;;-7.30;78.68;96468.59;4987413;28;20069;-65
2021/01/11 00:39:29;;;;;;;105.53;16.55;;;-3272.00;77.50;;;-7.36;78.95;96471.44;4987662;28;20034;-65
2021/01/11 00:41:58;;;;;;;47.85;17.05;;;-3271.90;77.80;;;-7.44;79.12;96464.16;4986907;28;20093;-65
2021/01/11 00:44:24;;;;;;;60.85;17.08;;;-3271.90;78.10;;;-7.46;78.73;96471.06;4987649;28;20038;-64
2021/01/11 00:46:50;;;;;;;64.88;17.27;;;-3271.80;78.00;;;-7.52;78.67;96469.59;4970862;28;20042;-65
2021/01/11 00:49:16;;;;;;;43.13;16.98;;;-3271.80;77.90;;;-7.64;79.26;96456.56;4986706;28;20041;-64
2021/01/11 00:51:42;;;;;;;33.55;16.30;;;-3271.70;78.30;;;-7.60;79.12;96468.28;4986684;28;20478;-65
2021/01/11 00:54:08;;;;;;;50.38;15.82;;;-3271.80;78.10;;;-7.65;78.76;96468.50;4986292;28;20053;-65
2021/01/11 00:56:34;;;;;;;52.75;17.65;;;-3271.70;77.80;;;-7.69;79.51;96469.56;4987072;28;20023;-65
2021/01/11 00:59:00;;;;;;;48.95;17.08;;;-3271.70;78.10;;;-7.74;79.00;96476.56;4987887;28;20089;-64
2021/01/11 01:01:25;;;;;;;56.90;16.45;;;-3271.60;78.20;;;-7.76;79.18;96473.25;4981323;28;20042;-64
2021/01/11 01:03:51;;;;;;;39.25;16.38;;;-3271.60;78.00;;;-7.80;79.30;96467.47;4987903;28;20109;-65
2021/01/11 01:06:17;;;;;;;33.13;16.33;;;-3271.60;77.90;;;-7.78;78.87;96473.31;4987529;28;20618;-64
2021/01/11 01:08:43;;;;;;;27.13;14.48;;;-3271.60;77.50;;;-7.77;79.00;96479.25;4987421;28;20564;-65
2021/01/11 01:11:11;;;;;;;43.72;16.20;;;-3271.60;77.30;;;-7.80;78.95;96477.69;4986625;28;20069;-64
2021/01/11 01:13:38;;;;;;;35.05;15.32;;;-3271.60;77.30;;;-7.81;78.86;96465.81;4986620;28;20489;-64
2021/01/11 01:16:04;;;;;;;28.25;15.10;;;-3271.60;77.30;;;-7.83;78.62;96482.09;4987216;28;20047;-64
2021/01/11 01:18:31;;;;;;;40.33;16.10;;;-3271.60;77.10;;;-7.87;79.01;96475.47;4985423;28;20438;-66
2021/01/11 01:20:57;;;;;;;35.22;15.80;;;-3271.50;77.00;;;-7.88;78.94;96479.75;4986251;28;20193;-65
2021/01/11 01:23:22;;;;;;;37.88;15.57;;;-3271.50;76.90;;;-7.88;78.47;96481.47;4987585;28;20026;-65
2021/01/11 01:25:48;;;;;;;45.88;15.80;;;-3271.50;77.00;;;-7.93;78.85;96483.38;4985447;28;20099;-65
2021/01/11 01:28:14;;;;;;;33.00;15.70;;;-3271.40;77.40;;;-7.96;79.03;96480.97;4986936;28;20086;-65
2021/01/11 01:30:39;;;;;;;33.55;15.07;;;-3271.40;77.40;;;-8.07;79.00;96469.50;4986633;28;20039;-64
2021/01/11 01:33:05;;;;;;;33.30;15.45;;;-3271.40;77.40;;;-8.00;78.87;96479.44;4985824;28;20034;-65
2021/01/11 01:35:31;;;;;;;30.10;14.75;;;-3271.40;77.30;;;-8.00;79.17;96484.56;4987097;28;20053;-66
2021/01/11 01:37:57;;;;;;;46.85;18.27;;;-3271.40;77.00;;;-8.01;78.73;96483.72;4986835;28;20034;-66
2021/01/11 01:40:23;;;;;;;90.82;24.40;;;-3271.30;77.70;;;-8.02;78.79;96484.63;4987445;28;20034;-65
2021/01/11 01:42:49;;;;;;;57.85;21.63;;;-3271.20;77.90;;;-8.02;79.13;96482.06;4987319;28;20093;-66
2021/01/11 01:45:15;;;;;;;44.42;18.55;;;-3271.30;78.40;;;-8.02;79.33;96480.34;5006930;28;20498;-65
2021/01/11 01:47:41;;;;;;;38.83;16.52;;;-3271.30;78.30;;;-8.04;79.14;96477.03;4991638;28;20051;-65
2021/01/11 01:50:08;;;;;;;39.88;16.17;;;-3271.20;78.20;;;-8.04;79.14;96474.47;4974111;28;20038;-65
2021/01/11 01:52:36;;;;;;;58.47;16.05;;;-3271.30;78.70;;;-8.05;79.17;96472.81;4989523;28;20073;-65
2021/01/11 01:55:03;;;;;;;41.45;15.88;;;-3271.30;78.40;;;-8.04;79.00;96466.81;4973714;28;20605;-65
2021/01/11 01:57:28;;;;;;;36.67;14.95;;;-3271.30;78.60;;;-8.08;79.27;96470.41;4989867;28;20030;-65
2021/01/11 01:59:54;;;;;;;66.97;16.10;;;-3271.20;78.30;;;-8.10;79.07;96469.66;4991518;28;20493;-65
2021/01/11 02:02:20;;;;;;;48.45;14.95;;;-3271.20;78.70;;;-8.14;79.28;96473.25;4990141;28;20517;-66
2021/01/11 02:04:46;;;;;;;35.05;15.60;;;-3271.10;78.80;;;-8.18;79.11;96474.25;4954094;28;20050;-65
2021/01/11 02:07:34;;;;;;;47.17;16.70;;;-3271.10;78.70;;;-8.23;79.72;96470.22;4989702;28;20592;-66
2021/01/11 02:10:46;;;;;;;40.28;16.58;;;-3271.00;78.30;;;-8.27;80.05;96464.44;4989901;28;20030;-65
2021/01/11 02:13:30;;;;;;;34.53;16.10;;;-3271.00;78.40;;;-8.29;79.94;96463.69;4971659;28;20134;-66
2021/01/11 02:16:17;;;;;;;33.25;16.20;;;-3270.90;78.50;;;-8.33;79.17;96459.59;4973605;28;20072;-65
2021/01/11 02:19:11;;;;;;;33.97;16.02;;;-3270.90;78.10;;;-8.33;79.82;96456.25;4990604;28;20134;-66
2021/01/11 02:21:51;;;;;;;46.03;15.93;;;-3270.90;77.90;;;-8.39;79.46;96457.31;4989723;28;20718;-65
2021/01/11 02:24:39;;;;;;;52.75;16.33;;;-3270.80;78.30;;;-8.45;79.53;96460.16;4991059;28;20088;-65
2021/01/11 02:27:26;;;;;;;33.90;15.27;;;-3270.60;78.50;;;-8.49;79.71;96456.91;4989577;28;20128;-65
2021/01/11 02:30:19;;;;;;;38.15;16.60;;;-3270.80;78.50;;;-8.55;80.44;96451.25;4975368;28;20038;-66
2021/01/11 02:33:08;;;;;;;31.58;15.38;;;-3270.80;78.30;;;-8.48;80.48;96460.28;4989153;28;20065;-66
2021/01/11 02:35:48;;;;;;;44.45;16.00;;;-3270.80;78.60;;;-8.46;80.22;96455.94;4980545;28;20092;-65
2021/01/11 02:38:26;;;;;;;35.60;15.25;;;-3270.80;78.70;;;-8.46;79.96;96455.94;4990572;28;20045;-66
2021/01/11 02:40:52;;;;;;;42.25;16.95;;;-3270.80;78.80;;;-8.46;79.14;96458.50;4972493;28;20070;-65
2021/01/11 02:43:18;;;;;;;42.78;16.88;;;-3270.80;79.00;;;-8.46;79.40;96453.38;4987470;28;20177;-65
2021/01/11 02:45:43;;;;;;;36.67;17.30;;;-3270.90;79.20;;;-8.42;79.52;96452.38;4972940;28;20034;-65
2021/01/11 02:48:20;;;;;;;41.88;17.92;;;-3271.00;79.40;;;-8.39;80.00;96454.78;4990370;28;20077;-65
2021/01/11 02:51:20;;;;;;;41.78;16.85;;;-3271.00;79.30;;;-8.39;81.69;96447.13;4987964;28;20124;-65
2021/01/11 02:54:32;;;;;;;41.13;16.90;;;-3271.10;79.40;;;-8.31;81.75;96454.44;4962871;28;20047;-65
2021/01/11 02:57:10;;;;;;;45.40;17.23;;;-3271.10;79.60;;;-8.27;80.51;96451.69;4970878;28;20129;-66
2021/01/11 02:59:52;;;;;;;58.40;18.75;;;-3271.10;79.70;;;-8.24;81.65;96446.44;4985972;28;20048;-65
2021/01/11 03:02:18;;;;;;;50.30;17.35;;;-3271.10;79.50;;;-8.26;79.98;96445.69;4958811;28;20030;-66
2021/01/11 03:04:44;;;;;;;47.70;17.98;;;-3271.20;80.20;;;-8.20;80.32;96453.06;4953012;28;20079;-66
2021/01/11 03:07:10;;;;;;;44.70;18.42;;;-3271.20;80.30;;;-8.18;80.15;96458.94;4957435;28;20126;-66
2021/01/11 03:09:38;;;;;;;91.00;22.30;;;-3271.20;80.50;;;-8.15;80.84;96453.69;4988342;28;20044;-65
2021/01/11 03:12:04;;;;;;;51.25;17.30;;;-3271.30;80.50;;;-8.14;80.15;96463.03;4988398;28;20045;-65
2021/01/11 03:14:30;;;;;;;56.30;16.73;;;-3271.30;80.50;;;-8.10;80.49;96469.66;4988326;28;20502;-66
2021/01/11 03:16:56;;;;;;;49.22;19.20;;;-3271.40;80.50;;;-8.05;80.41;96477.09;4972575;28;20116;-66
2021/01/11 03:19:21;;;;;;;47.80;17.40;;;-3271.40;80.40;;;-8.04;80.58;96474.47;4972379;28;20088;-65
2021/01/11 03:21:47;;;;;;;44.20;17.40;;;-3271.40;80.10;;;-8.00;80.20;96470.06;4989570;28;20074;-64
2021/01/11 03:24:15;;;;;;;52.50;17.65;;;-3271.50;79.70;;;-8.01;80.48;96473.50;4990008;28;20073;-65
2021/01/11 03:26:40;;;;;;;50.00;18.98;;;-3271.40;80.10;;;-7.99;80.28;96471.72;4988679;28;20084;-65
2021/01/11 03:29:06;;;;;;;52.38;18.02;;;-3271.50;79.90;;;-7.96;80.34;96468.19;4989623;28;20112;-66
2021/01/11 03:31:32;;;;;;;42.03;16.98;;;-3271.50;79.70;;;-7.96;80.11;96471.59;4989681;28;20082;-66
2021/01/11 03:33:58;;;;;;;106.70;17.50;;;-3271.50;79.50;;;-8.05;80.55;96449.03;4989551;28;20483;-63
2021/01/11 03:36:23;;;;;;;38.22;17.25;;;-3271.40;79.60;;;-7.97;80.48;96462.28;4988230;28;20080;-64
2021/01/11 03:38:49;;;;;;;49.13;17.83;;;-3271.40;80.00;;;-7.98;80.28;96462.34;4988871;28;20066;-64
2021/01/11 03:41:15;;;;;;;52.90;16.98;;;-3271.30;79.90;;;-7.98;80.38;96467.44;4988247;28;20501;-64
2021/01/11 03:43:42;;;;;;;74.90;17.83;;;-3271.30;79.70;;;-7.99;80.58;96455.56;4971738;28;20070;-64
2021/01/11 03:46:09;;;;;;;40.58;16.58;;;-3271.30;79.90;;;-7.97;80.77;96453.78;4988197;28;20101;-65
2021/01/11 03:48:35;;;;;;;44.83;18.33;;;-3271.40;80.00;;;-7.97;80.65;96454.63;4988331;28;20504;-65
2021/01/11 03:51:01;;;;;;;44.05;18.02;;;-3271.40;80.00;;;-7.95;80.63;96446.88;4988509;28;20042;-64
2021/01/11 03:53:27;;;;;;;36.88;16.42;;;-3271.50;80.00;;;-7.94;80.28;96438.31;4988030;28;20072;-65
2021/01/11 03:55:52;;;;;;;42.60;15.88;;;-3271.50;79.40;;;-7.92;80.16;96441.63;4987963;28;20485;-65
2021/01/11 03:58:18;;;;;;;38.08;16.70;;;-3271.50;78.90;;;-7.92;80.21;96439.94;4987557;28;20030;-65
2021/01/11 04:00:44;;;;;;;42.28;15.65;;;-3271.50;78.80;;;-7.92;80.15;96437.38;4988691;28;20670;-64
2021/01/11 04:03:10;;;;;;;42.65;16.38;;;-3271.40;78.30;;;-7.92;80.06;96431.44;4989443;28;20124;-65
2021/01/11 04:05:35;;;;;;;46.35;15.30;;;-3271.40;78.30;;;-7.97;79.80;96434.19;4987665;28;20125;-65
2021/01/11 04:08:02;;;;;;;33.65;15.48;;;-3271.30;78.60;;;-8.00;79.71;96428.41;4987903;28;20078;-65
2021/01/11 04:10:28;;;;;;;82.10;16.38;;;-3271.20;78.30;;;-8.09;79.14;96427.09;4987011;28;20053;-65
2021/01/11 04:12:54;;;;;;;59.63;15.35;;;-3271.00;77.80;;;-8.17;79.38;96424.03;4988157;28;20061;-66
2021/01/11 04:15:19;;;;;;;94.43;15.77;;;-3270.90;78.30;;;-8.26;79.40;96422.72;4971511;28;20274;-65
2021/01/11 04:17:48;;;;;;;52.40;15.48;;;-3270.80;78.40;;;-8.35;79.51;96418.06;4988270;28;20038;-65
2021/01/11 04:20:14;;;;;;;33.30;13.65;;;-3270.70;78.80;;;-8.42;79.81;96416.66;4988737;28;20569;-66
2021/01/11 04:22:39;;;;;;;76.38;15.40;;;-3270.80;79.30;;;-8.46;79.63;96422.78;4988475;28;20042;-65
2021/01/11 04:25:06;;;;;;;42.13;14.52;;;-3270.70;78.90;;;-8.48;79.76;96424.56;4988424;28;20034;-66
2021/01/11 04:27:31;;;;;;;36.55;12.82;;;-3270.80;79.30;;;-8.53;79.72;96423.94;4988395;28;20065;-65
2021/01/11 04:29:57;;;;;;;29.75;13.25;;;-3270.70;78.70;;;-8.60;79.55;96428.47;4988971;28;20042;-65
2021/01/11 04:32:23;;;;;;;31.25;12.90;;;-3270.70;78.00;;;-8.61;79.03;96431.06;4988988;28;20066;-65
2021/01/11 04:34:49;;;;;;;28.05;12.63;;;-3270.70;77.20;;;-8.63;79.08;96428.59;4988013;28;20066;-65
2021/01/11 04:37:14;;;;;;;33.97;13.75;;;-3270.50;77.00;;;-8.65;79.17;96435.47;4987643;28;20091;-66
2021/01/11 04:39:40;;;;;;;30.15;13.80;;;-3270.60;77.10;;;-8.71;79.03;96438.28;4988601;28;20068;-65
2021/01/11 04:42:10;;;;;;;45.60;12.75;;;-3270.50;77.10;;;-8.83;79.09;96431.97;4987131;28;20073;-65
2021/01/11 04:44:36;;;;;;;29.63;13.53;;;-3270.20;77.50;;;-8.88;79.24;96438.16;4986357;28;20630;-65
2021/01/11 04:47:03;;;;;;;29.02;12.60;;;-3270.30;78.10;;;-8.90;79.12;96438.22;4988653;28;20039;-65
2021/01/11 04:49:29;;;;;;;29.90;12.13;;;-3270.30;78.00;;;-8.92;79.14;96442.56;4988130;28;20034;-65
2021/01/11 04:51:55;;;;;;;30.10;13.07;;;-3270.40;77.80;;;-8.91;79.10;96444.22;4970747;28;20407;-65
2021/01/11 04:54:21;;;;;;;33.20;13.38;;;-3270.40;78.00;;;-8.93;79.02;96443.44;4986565;28;20038;-65
2021/01/11 04:56:48;;;;;;;58.63;14.27;;;-3270.30;78.10;;;-8.96;79.28;96452.03;4967107;28;20097;-65
2021/01/11 04:59:20;;;;;;;27.98;12.55;;;-3270.10;78.20;;;-9.01;79.98;96455.69;4987853;28;20538;-65
2021/01/11 05:01:49;;;;;;;30.52;13.77;;;-3270.20;79.10;;;-9.00;80.12;96455.63;4987018;28;20046;-65
2021/01/11 05:04:15;;;;;;;32.25;14.75;;;-3270.40;78.70;;;-8.98;79.59;96458.09;4987423;28;20466;-65
2021/01/11 05:06:47;;;;;;;38.85;14.20;;;-3270.30;78.50;;;-8.96;80.17;96451.22;4985042;28;20077;-65
2021/01/11 05:09:14;;;;;;;37.03;15.23;;;-3270.30;78.80;;;-8.94;79.72;96453.69;4986317;28;20507;-65
2021/01/11 05:11:40;;;;;;;32.00;14.10;;;-3270.40;78.80;;;-8.94;80.07;96444.34;4987498;28;20039;-65
2021/01/11 05:14:06;;;;;;;41.30;14.90;;;-3270.50;78.80;;;-8.91;79.66;96449.31;4988379;28;20054;-65
2021/01/11 05:16:32;;;;;;;35.25;14.35;;;-3270.50;78.90;;;-8.90;80.03;96442.50;4969897;28;20073;-66
2021/01/11 05:19:21;;;;;;;35.15;14.27;;;-3270.50;79.10;;;-8.87;81.79;96445.72;4986439;28;20473;-65
2021/01/11 05:21:47;;;;;;;34.85;15.50;;;-3270.60;79.20;;;-8.84;80.02;96449.88;4985875;28;20043;-64
2021/01/11 05:24:38;;;;;;;41.25;15.23;;;-3270.60;79.40;;;-8.83;81.66;96454.91;4986681;28;20100;-64
2021/01/11 05:27:08;;;;;;;33.75;14.57;;;-3270.60;79.50;;;-8.83;80.69;96462.56;4987685;28;20124;-64
2021/01/11 05:29:34;;;;;;;39.83;15.35;;;-3270.60;79.70;;;-8.77;80.26;96467.44;4994740;28;20062;-64
2021/01/11 05:32:07;;;;;;;41.13;15.07;;;-3270.70;79.50;;;-8.75;81.05;96465.63;4986974;28;20469;-66
2021/01/11 05:34:52;;;;;;;33.25;13.90;;;-3270.70;79.40;;;-8.68;81.26;96469.59;4988483;28;20587;-66
2021/01/11 05:37:42;;;;;;;30.15;13.30;;;-3270.80;79.00;;;-8.62;80.96;96470.22;4987179;28;20042;-65
2021/01/11 05:40:16;;;;;;;31.88;12.02;;;-3270.80;78.40;;;-8.63;80.37;96482.13;4992034;28;20497;-65
2021/01/11 05:42:42;;;;;;;31.52;12.73;;;-3270.80;78.40;;;-8.63;80.01;96483.84;4997220;28;20044;-66
2021/01/11 05:45:14;;;;;;;39.95;14.00;;;-3270.70;78.40;;;-8.61;80.04;96494.81;4987551;28;20108;-65
2021/01/11 05:47:59;;;;;;;30.80;13.57;;;-3270.80;78.10;;;-8.57;80.21;96493.84;4992767;28;20092;-65
2021/01/11 05:50:49;;;;;;;31.17;13.80;;;-3270.90;77.90;;;-8.59;80.24;96498.16;4994268;28;20122;-66
2021/01/11 05:53:19;;;;;;;31.10;13.07;;;-3270.60;77.70;;;-8.63;79.84;96489.78;4982028;28;20449;-66
2021/01/11 05:55:49;;;;;;;33.88;14.77;;;-3270.60;78.10;;;-8.64;79.67;96490.69;4986687;28;20031;-65
2021/01/11 05:58:15;;;;;;;32.67;13.10;;;-3270.70;78.20;;;-8.61;79.43;96502.47;4986002;28;20031;-66
2021/01/11 06:00:41;;;;;;;34.85;14.63;;;-3270.70;78.50;;;-8.60;79.87;96499.03;4985125;28;20043;-65
2021/01/11 06:03:09;;;;;;;29.52;13.30;;;-3270.80;78.30;;;-8.60;79.78;96499.84;4987096;28;20565;-66
2021/01/11 06:05:35;;;;;;;36.25;14.15;;;-3270.70;78.30;;;-8.56;79.83;96490.38;4985550;28;20085;-66
2021/01/11 06:08:02;;;;;;;32.45;13.48;;;-3270.70;77.90;;;-8.56;79.82;96495.50;4969280;28;20511;-65
2021/01/11 06:10:28;;;;;;;39.72;14.80;;;-3270.80;77.40;;;-8.57;79.67;96493.84;4987103;28;20559;-66
2021/01/11 06:12:54;;;;;;;37.00;14.73;;;-3270.70;77.50;;;-8.55;79.36;96497.97;4986063;28;20053;-65
2021/01/11 06:15:22;;;;;;;40.00;14.30;;;-3270.80;77.90;;;-8.57;79.55;96493.84;4987111;28;20113;-64
2021/01/11 06:17:49;;;;;;;51.13;13.90;;;-3270.70;78.10;;;-8.57;79.65;96493.84;4986082;28;20040;-64
2021/01/11 06:20:22;;;;;;;44.80;14.90;;;-3270.80;78.20;;;-8.58;80.37;96487.06;4970064;28;20030;-64
2021/01/11 06:22:51;;;;;;;57.03;21.55;;;-3270.80;78.30;;;-8.55;80.23;96492.03;4985216;28;20035;-64
2021/01/11 06:25:26;;;;;;;40.67;15.50;;;-3270.80;78.30;;;-8.58;80.40;96493.00;4987435;28;20026;-65
2021/01/11 06:27:52;;;;;;;39.90;15.52;;;-3270.80;78.00;;;-8.55;79.88;96500.53;4986615;28;20043;-67
2021/01/11 06:30:43;;;;;;;55.90;17.48;;;-3270.80;78.60;;;-8.55;81.26;96502.25;4970988;28;20541;-68
2021/01/11 06:33:17;;;;;;;37.60;15.50;;;-3270.80;78.80;;;-8.54;80.60;96491.97;4972480;28;20097;-68
2021/01/11 06:35:47;;;;;;;46.15;17.55;;;-3270.90;78.90;;;-8.52;80.41;96489.38;4989721;28;20039;-66
2021/01/11 06:38:25;;;;;;;50.25;17.33;;;-3270.90;79.30;;;-8.52;81.09;96486.81;4986705;28;20091;-63
2021/01/11 06:41:03;;;;;;;72.78;20.23;;;-3270.80;79.50;;;-8.52;81.56;96491.91;4989719;28;20137;-65
2021/01/11 06:43:48;;;;;;;51.17;17.17;;;-3270.80;80.00;;;-8.54;81.49;96496.25;4990191;28;20045;-67
2021/01/11 06:46:29;;;;;;;47.45;17.58;;;-3270.80;79.70;;;-8.51;81.17;96488.47;4990186;28;20035;-65
2021/01/11 06:49:02;;;;;;;47.25;16.60;;;-3270.90;79.30;;;-8.49;80.74;96495.16;4989121;28;20038;-70
2021/01/11 06:51:40;;;;;;;48.80;17.52;;;-3270.90;79.50;;;-8.47;80.62;96492.53;4988314;28;20042;-70
2021/01/11 06:54:16;;;;;;;39.05;17.52;;;-3271.00;79.10;;;-8.45;81.17;96500.97;4990117;28;20070;-73
2021/01/11 06:56:43;;;;;;;43.88;16.98;;;-3271.00;79.10;;;-8.41;80.42;96502.47;4972665;28;20038;-72
2021/01/11 06:59:12;;;;;;;45.85;17.13;;;-3271.00;78.70;;;-8.38;80.68;96510.00;4989315;28;20108;-70
2021/01/11 07:01:41;;;;;;;54.75;18.63;;;-3271.10;79.10;;;-8.35;80.36;96509.91;4989145;28;20042;-71
2021/01/11 07:04:08;;;;;;;46.58;18.65;;;-3271.00;79.00;;;-8.36;80.07;96506.53;4990052;28;20036;-69
2021/01/11 07:06:35;;;;;;;44.33;17.52;;;-3271.00;78.90;;;-8.34;80.35;96516.66;4988064;28;20486;-66
2021/01/11 07:09:13;;;;;;;46.13;16.50;;;-3271.10;78.90;;;-8.32;81.30;96519.13;4992173;28;20030;-68
2021/01/11 07:11:43;;;;;;;37.75;15.52;;;-3271.10;78.80;;;-8.30;80.33;96517.31;5009869;28;20073;-62
2021/01/11 07:14:10;;;;;;;51.78;17.65;;;-3271.10;78.50;;;-8.26;80.64;96522.22;5009136;28;20033;-66
2021/01/11 07:16:55;;;;;;;54.58;19.90;;;-3271.20;79.20;;;-8.22;81.71;96521.19;5009076;28;20038;-66
2021/01/11 07:19:43;;;;;;;51.55;19.73;;;-3271.30;79.20;;;-8.20;82.04;96524.50;5007090;28;20050;-67
2021/01/11 07:22:12;;;;;;;65.57;22.55;;;-3271.30;79.10;;;-8.17;80.72;96524.38;5009287;28;20472;-67
2021/01/11 07:24:41;;;;;;;44.38;16.98;;;-3271.30;79.00;;;-8.16;80.59;96515.81;5006381;28;20054;-67
2021/01/11 07:27:08;;;;;;;65.20;23.80;;;-3271.30;79.00;;;-8.12;80.74;96519.09;5008954;28;20134;-68
2021/01/11 07:29:33;;;;;;;66.47;18.20;;;-3271.40;79.00;;;-8.09;80.58;96522.34;5008033;28;20052;-69
2021/01/11 07:31:59;;;;;;;52.95;17.23;;;-3271.30;79.00;;;-8.09;81.08;96518.97;4991532;28;20073;-66
2021/01/11 07:34:25;;;;;;;48.38;16.35;;;-3271.40;80.10;;;-8.08;80.92;96518.06;5005977;28;20034;-70
2021/01/11 07:36:53;;;;;;;47.20;17.08;;;-3271.40;80.40;;;-8.08;80.82;96513.81;5008207;28;20124;-68
2021/01/11 07:39:20;;;;;;;61.53;18.83;;;-3271.40;79.60;;;-8.04;81.03;96517.88;4989962;28;20030;-66
2021/01/11 07:41:56;;;;;;;53.63;17.20;;;-3271.40;79.90;;;-7.99;81.71;96527.06;5008652;28;20034;-67
2021/01/11 07:44:31;;;;;;;74.43;15.82;;;-3271.40;80.70;;;-7.94;81.81;96525.13;5007235;28;20441;-72
2021/01/11 07:47:11;;;;;;;58.00;16.27;;;-3271.50;80.30;;;-7.93;81.22;96521.66;5008624;28;20100;-65
2021/01/11 07:49:50;;;;;;;56.28;17.48;;;-3271.50;80.30;;;-7.91;82.34;96515.63;5005159;28;20042;-68
2021/01/11 07:52:18;;;;;;;70.15;16.95;;;-3271.60;80.90;;;-7.86;81.36;96523.91;4990193;28;20033;-69
2021/01/11 07:54:44;;;;;;;53.95;16.05;;;-3271.60;80.20;;;-7.82;81.28;96522.88;5024206;28;20038;-70
2021/01/11 07:57:14;;;;;;;48.28;17.55;;;-3271.70;80.70;;;-7.77;81.73;96528.59;5008832;28;20479;-62
2021/01/11 07:59:41;;;;;;;56.38;16.63;;;-3271.70;80.80;;;-7.73;81.40;96539.50;5006689;28;20153;-64
2021/01/11 08:02:14;;;;;;;67.00;16.70;;;-3271.80;80.70;;;-7.87;82.06;96511.22;4991526;28;20469;-72
2021/01/11 08:04:40;;;;;;;58.83;17.48;;;-3271.80;80.70;;;-7.69;81.46;96533.41;5000531;28;20092;-72
2021/01/11 08:07:15;;;;;;;72.05;23.88;;;-3271.80;80.90;;;-7.70;82.76;96529.16;4992362;28;20034;-69
2021/01/11 08:09:41;;;;;;;64.15;19.15;;;-3271.90;80.90;;;-7.55;81.64;96536.16;4993333;28;20038;-70
2021/01/11 08:12:12;;;;;;;51.40;18.05;;;-3272.00;80.40;;;-7.49;81.79;96527.38;5008199;28;20116;-70
2021/01/11 08:14:41;;;;;;;51.23;16.90;;;-3272.10;80.20;;;-7.43;81.95;96530.50;4989864;28;20054;-69
2021/01/11 08:17:12;;;;;;;49.70;16.13;;;-3272.20;79.40;;;-7.38;82.16;96532.03;5007136;28;20132;-69
2021/01/11 08:19:40;;;;;;;59.55;19.80;;;-3272.20;79.50;;;-7.31;82.24;96530.84;5007376;28;20137;-69
2021/01/11 08:22:07;;;;;;;59.50;18.02;;;-3272.30;80.10;;;-7.21;82.00;96537.19;5018209;28;20115;-68
2021/01/11 08:24:33;;;;;;;50.20;17.15;;;-3272.50;79.70;;;-7.15;81.41;96536.91;4988406;28;20034;-73
2021/01/11 08:27:11;;;;;;;60.83;17.23;;;-3272.50;79.20;;;-7.08;82.56;96533.16;5009159;28;20565;-68
2021/01/11 08:29:39;;;;;;;54.55;18.67;;;-3272.70;79.00;;;-7.04;81.74;96529.56;5007858;28;20421;-67
2021/01/11 08:32:08;;;;;;;62.50;17.83;;;-3272.70;78.90;;;-6.94;81.51;96535.91;4989117;28;20035;-68
2021/01/11 08:34:34;;;;;;;58.20;17.10;;;-3272.70;78.80;;;-6.89;81.71;96528.84;4999704;28;20041;-69
2021/01/11 08:37:00;;;;;;;65.22;19.65;;;-3272.80;79.10;;;-6.84;81.62;96532.00;5008078;28;20072;-67
2021/01/11 08:39:25;;;;;;;61.03;18.27;;;-3272.90;78.90;;;-6.75;81.56;96530.78;5007585;28;20637;-68
2021/01/11 08:41:54;;;;;;;74.32;25.52;;;-3273.00;78.70;;;-6.65;81.87;96537.09;5009414;28;20068;-69
2021/01/11 08:44:31;;;;;;;70.95;25.85;;;-3273.10;79.20;;;-6.55;83.24;96537.50;4992006;28;20534;-66
2021/01/11 08:47:08;;;;;;;62.63;20.73;;;-3273.20;79.60;;;-6.45;82.95;96536.13;4991898;28;20049;-63
2021/01/11 08:49:57;;;;;;;58.08;17.98;;;-3273.30;79.00;;;-6.37;83.05;96545.97;4989920;28;20038;-65
2021/01/11 08:52:33;;;;;;;56.95;18.30;;;-3273.30;78.80;;;-6.31;82.43;96546.53;5007486;28;20049;-73
2021/01/11 08:55:09;;;;;;;50.47;17.02;;;-3273.30;78.50;;;-6.29;82.14;96543.91;5009561;28;20561;-69
2021/01/11 08:57:35;;;;;;;60.10;17.92;;;-3273.40;78.30;;;-6.25;81.66;96550.50;5008724;28;20045;-65
2021/01/11 09:00:08;;;;;;;60.03;18.52;;;-3273.40;77.90;;;-6.19;81.68;96556.16;5008781;28;20095;-68
2021/01/11 09:02:33;;;;;;;56.53;17.73;;;-3273.40;78.10;;;-6.13;81.32;96559.31;5007676;28;20038;-71
2021/01/11 09:05:16;;;;;;;70.88;25.00;;;-3273.40;78.20;;;-6.07;82.10;96561.59;4988266;28;20052;-69
2021/01/11 09:07:42;;;;;;;95.10;34.75;;;-3273.60;77.60;;;-6.03;81.69;96560.53;5004524;28;20038;-70
2021/01/11 09:10:42;;;;;;;81.97;29.65;;;-3273.70;77.30;;;-5.93;81.96;96572.78;5007056;28;20034;-71
2021/01/11 09:13:22;;;;;;;68.18;24.90;;;-3273.90;77.10;;;-5.86;81.65;96568.16;4992341;28;20045;-67
2021/01/11 09:15:48;;;;;;;61.00;19.33;;;-3274.00;76.60;;;-5.80;80.90;96572.97;4988193;28;20038;-70
2021/01/11 09:18:14;;;;;;;61.78;19.42;;;-3273.90;76.10;;;-5.77;80.92;96569.41;4989742;28;20108;-67
2021/01/11 09:20:42;;;;;;;61.00;20.83;;;-3273.90;77.00;;;-5.76;81.19;96564.22;4987882;28;20513;-68
2021/01/11 09:23:08;;;;;;;58.22;19.33;;;-3273.90;77.00;;;-5.66;80.65;96579.94;5007813;28;20041;-69
2021/01/11 09:25:34;;;;;;;60.83;19.35;;;-3274.00;76.40;;;-5.63;80.90;96590.88;4990637;28;20054;-67
2021/01/11 09:28:04;;;;;;;61.45;19.17;;;-3274.00;76.30;;;-5.64;80.47;96584.09;5007802;28;20042;-67
2021/01/11 09:30:30;;;;;;;56.78;18.45;;;-3273.80;76.20;;;-5.65;80.91;96586.75;5006427;28;20068;-67
2021/01/11 09:32:57;;;;;;;51.00;16.95;;;-3273.80;76.60;;;-5.71;80.81;96581.91;5008698;28;20095;-67
2021/01/11 09:35:23;;;;;;;56.58;17.83;;;-3273.70;77.00;;;-5.67;80.59;96589.34;5007728;28;20033;-68
2021/01/11 09:37:49;;;;;;;57.80;18.75;;;-3273.80;76.70;;;-5.65;80.74;96585.00;5007742;28;20048;-70
2021/01/11 09:40:16;;;;;;;54.00;17.38;;;-3273.90;76.40;;;-5.61;80.49;96583.09;5008190;28;20042;-67
2021/01/11 09:42:45;;;;;;;59.47;19.67;;;-3274.00;76.10;;;-5.58;80.67;96583.78;4990679;28;20038;-64
2021/01/11 09:45:11;;;;;;;52.78;18.20;;;-3274.00;76.10;;;-5.55;80.64;96587.91;5007710;28;20456;-70
2021/01/11 09:47:36;;;;;;;52.63;19.48;;;-3274.00;76.40;;;-5.49;80.66;96579.06;5008062;28;20121;-70
2021/01/11 09:50:04;;;;;;;54.47;18.48;;;-3274.10;76.20;;;-5.48;80.61;96570.47;5008058;28;20462;-68
2021/01/11 09:52:30;;;;;;;62.60;20.45;;;-3274.20;76.10;;;-5.41;80.47;96584.66;4988419;28;20061;-69
2021/01/11 09:54:56;;;;;;;58.10;20.52;;;-3274.20;75.80;;;-5.36;80.21;96587.78;5006083;28;20045;-72
2021/01/11 09:57:21;;;;;;;56.97;21.02;;;-3274.20;75.60;;;-5.32;80.56;96589.28;5008379;28;20478;-69
2021/01/11 09:59:48;;;;;;;62.80;20.35;;;-3274.30;75.70;;;-5.39;80.29;96570.00;5022640;28;20042;-68